createdAt,value
2019-04-30T00:00:06.155Z,38.16
2019-04-30T00:01:07.441Z,38.16
2019-04-30T00:02:05.829Z,38.16
2019-04-30T00:03:06.610Z,38.16
2019-04-30T00:04:05.736Z,38.16
2019-04-30T00:05:05.497Z,38.16
2019-04-30T00:06:07.235Z,38.16
2019-04-30T00:07:05.675Z,38.16
2019-04-30T00:08:05.841Z,38.16
2019-04-30T00:09:05.363Z,38.16
2019-04-30T00:10:06.131Z,38.16
2019-04-30T00:11:05.383Z,38.26
2019-04-30T00:12:05.619Z,38.26
2019-04-30T00:13:06.109Z,38.16
2019-04-30T00:14:05.648Z,38.16
2019-04-30T00:15:06.202Z,38.26
2019-04-30T00:16:05.319Z,38.26
2019-04-30T00:17:06.350Z,38.26
2019-04-30T00:18:05.505Z,38.26
2019-04-30T00:19:06.187Z,38.26
2019-04-30T00:20:05.298Z,38.26
2019-04-30T00:21:05.517Z,38.26
2019-04-30T00:22:05.730Z,38.16
2019-04-30T00:23:05.194Z,38.16
2019-04-30T00:24:06.221Z,38.26
2019-04-30T00:25:05.562Z,38.26
2019-04-30T00:26:09.983Z,38.26
2019-04-30T00:27:05.530Z,38.26
2019-04-30T00:28:08.479Z,38.16
2019-04-30T00:29:05.109Z,38.16
2019-04-30T00:30:07.696Z,38.16
2019-04-30T00:31:05.504Z,38.26
2019-04-30T00:32:07.785Z,38.26
2019-04-30T00:33:05.814Z,38.26
2019-04-30T00:34:05.077Z,38.26
2019-04-30T00:35:04.465Z,38.16
2019-04-30T00:36:04.981Z,38.16
2019-04-30T00:37:07.260Z,38.16
2019-04-30T00:38:05.418Z,38.26
2019-04-30T00:39:07.118Z,38.26
2019-04-30T00:40:05.621Z,38.26
2019-04-30T00:41:06.839Z,38.16
2019-04-30T00:42:05.380Z,38.16
2019-04-30T00:43:07.942Z,38.16
2019-04-30T00:44:05.376Z,38.16
2019-04-30T00:45:09.495Z,38.16
2019-04-30T00:46:05.333Z,38.16
2019-04-30T00:47:07.879Z,38.16
2019-04-30T00:48:06.004Z,38.16
2019-04-30T00:49:09.801Z,38.16
2019-04-30T00:50:05.338Z,38.16
2019-04-30T00:51:08.923Z,38.16
2019-04-30T00:52:05.286Z,38.16
2019-04-30T00:53:05.957Z,38.16
2019-04-30T00:54:05.709Z,38.16
2019-04-30T00:55:05.556Z,38.16
2019-04-30T00:56:05.687Z,38.16
2019-04-30T00:57:07.507Z,38.16
2019-04-30T00:58:05.911Z,38.16
2019-04-30T00:59:07.096Z,38.16
2019-04-30T01:00:05.215Z,38.16
2019-04-30T01:01:08.007Z,38.16
2019-04-30T01:02:05.958Z,38.16
2019-04-30T01:03:05.918Z,38.16
2019-04-30T01:04:05.039Z,38.16
2019-04-30T01:05:06.041Z,38.16
2019-04-30T01:06:05.398Z,38.16
2019-04-30T01:07:05.213Z,38.16
2019-04-30T01:08:04.984Z,38.16
2019-04-30T01:09:05.561Z,38.16
2019-04-30T01:10:05.108Z,38.16
2019-04-30T01:11:09.428Z,38.16
2019-04-30T01:12:05.514Z,38.16
2019-04-30T01:13:08.008Z,38.16
2019-04-30T01:14:05.043Z,38.16
2019-04-30T01:15:06.417Z,38.16
2019-04-30T01:16:05.015Z,38.16
2019-04-30T01:17:08.136Z,38.16
2019-04-30T01:18:04.995Z,38.16
2019-04-30T01:19:05.729Z,38.16
2019-04-30T01:20:04.985Z,38.16
2019-04-30T01:21:07.851Z,38.16
2019-04-30T01:22:04.944Z,38.16
2019-04-30T01:23:08.016Z,38.16
2019-04-30T01:24:04.924Z,38.16
2019-04-30T01:25:08.918Z,38.16
2019-04-30T01:26:04.937Z,38.16
2019-04-30T01:27:06.713Z,38.16
2019-04-30T01:28:04.879Z,38.16
2019-04-30T01:29:03.870Z,38.16
2019-04-30T01:30:03.854Z,38.16
2019-04-30T01:31:03.873Z,38.16
2019-04-30T01:32:03.834Z,38.16
2019-04-30T01:33:03.824Z,38.16
2019-04-30T01:34:05.146Z,38.16
2019-04-30T01:35:04.808Z,38.16
2019-04-30T01:36:04.064Z,38.16
2019-04-30T01:37:03.784Z,38.16
2019-04-30T01:38:04.080Z,38.16
2019-04-30T01:39:03.759Z,38.16
2019-04-30T01:40:10.524Z,38.16
2019-04-30T01:41:04.763Z,38.16
2019-04-30T01:42:07.899Z,38.16
2019-04-30T01:43:04.717Z,38.16
2019-04-30T01:44:03.910Z,38.16
2019-04-30T01:45:03.705Z,38.26
2019-04-30T01:46:12.187Z,38.16
2019-04-30T01:47:04.679Z,38.16
2019-04-30T01:48:08.618Z,38.16
2019-04-30T01:49:04.661Z,38.16
2019-04-30T01:50:04.975Z,38.16
2019-04-30T01:51:03.639Z,38.26
2019-04-30T01:52:03.645Z,38.26
2019-04-30T01:53:04.835Z,38.26
2019-04-30T01:54:03.610Z,38.26
2019-04-30T01:55:03.595Z,38.26
2019-04-30T01:56:03.583Z,38.26
2019-04-30T01:57:03.593Z,38.26
2019-04-30T01:58:03.567Z,38.26
2019-04-30T01:59:03.547Z,38.26
2019-04-30T02:00:03.549Z,38.26
2019-04-30T02:01:03.527Z,38.26
2019-04-30T02:02:03.538Z,38.26
2019-04-30T02:03:03.502Z,38.26
2019-04-30T02:04:03.494Z,38.26
2019-04-30T02:05:03.504Z,38.26
2019-04-30T02:06:03.478Z,38.26
2019-04-30T02:07:03.489Z,38.26
2019-04-30T02:08:03.450Z,38.26
2019-04-30T02:09:03.439Z,38.26
2019-04-30T02:10:03.423Z,38.26
2019-04-30T02:11:03.424Z,38.26
2019-04-30T02:12:03.427Z,38.26
2019-04-30T02:13:03.403Z,38.26
2019-04-30T02:14:03.392Z,38.26
2019-04-30T02:15:03.405Z,38.26
2019-04-30T02:16:03.360Z,38.26
2019-04-30T02:17:03.370Z,38.26
2019-04-30T02:18:03.352Z,38.26
2019-04-30T02:19:03.337Z,38.26
2019-04-30T02:20:03.316Z,38.26
2019-04-30T02:21:03.320Z,38.26
2019-04-30T02:22:03.323Z,38.26
2019-04-30T02:23:03.299Z,38.26
2019-04-30T02:24:03.289Z,38.26
2019-04-30T02:25:03.263Z,38.26
2019-04-30T02:26:03.249Z,38.26
2019-04-30T02:27:03.249Z,38.26
2019-04-30T02:28:03.254Z,38.26
2019-04-30T02:29:03.228Z,38.26
2019-04-30T02:30:03.250Z,38.26
2019-04-30T02:31:03.199Z,38.26
2019-04-30T02:32:03.205Z,38.26
2019-04-30T02:33:03.211Z,38.26
2019-04-30T02:34:03.817Z,38.26
2019-04-30T02:35:03.359Z,38.16
2019-04-30T02:36:03.820Z,38.16
2019-04-30T02:37:03.147Z,38.26
2019-04-30T02:38:03.177Z,38.16
2019-04-30T02:39:03.123Z,38.16
2019-04-30T02:40:03.115Z,38.16
2019-04-30T02:41:03.133Z,38.16
2019-04-30T02:42:03.090Z,38.16
2019-04-30T02:43:03.128Z,38.16
2019-04-30T02:44:03.075Z,38.16
2019-04-30T02:45:03.701Z,38.16
2019-04-30T02:46:03.052Z,38.16
2019-04-30T02:47:03.044Z,38.16
2019-04-30T02:48:03.029Z,38.16
2019-04-30T02:49:03.051Z,38.16
2019-04-30T02:50:14.094Z,38.16
2019-04-30T02:51:03.994Z,38.16
2019-04-30T02:52:03.009Z,38.16
2019-04-30T02:53:02.979Z,38.16
2019-04-30T02:54:02.989Z,38.16
2019-04-30T02:55:02.990Z,38.26
2019-04-30T02:56:02.941Z,38.26
2019-04-30T02:57:02.929Z,38.26
2019-04-30T02:58:02.924Z,38.26
2019-04-30T02:59:03.871Z,38.26
2019-04-30T03:00:02.931Z,38.26
2019-04-30T03:01:02.904Z,38.26
2019-04-30T03:02:02.878Z,38.26
2019-04-30T03:03:02.857Z,38.36
2019-04-30T03:04:02.876Z,38.26
2019-04-30T03:05:02.840Z,38.26
2019-04-30T03:06:02.824Z,38.26
2019-04-30T03:07:02.815Z,38.26
2019-04-30T03:08:02.811Z,38.26
2019-04-30T03:09:02.828Z,38.26
2019-04-30T03:10:02.801Z,38.26
2019-04-30T03:11:02.773Z,38.26
2019-04-30T03:12:02.768Z,38.26
2019-04-30T03:13:02.749Z,38.26
2019-04-30T03:14:02.764Z,38.26
2019-04-30T03:15:02.791Z,38.26
2019-04-30T03:16:02.720Z,38.26
2019-04-30T03:17:02.702Z,38.26
2019-04-30T03:18:02.695Z,38.26
2019-04-30T03:19:02.704Z,38.26
2019-04-30T03:20:03.570Z,38.26
2019-04-30T03:21:02.669Z,38.26
2019-04-30T03:22:02.673Z,38.26
2019-04-30T03:23:02.652Z,38.26
2019-04-30T03:24:02.664Z,38.26
2019-04-30T03:25:02.622Z,38.26
2019-04-30T03:26:02.603Z,38.26
2019-04-30T03:27:02.595Z,38.26
2019-04-30T03:28:02.584Z,38.26
2019-04-30T03:29:02.581Z,38.26
2019-04-30T03:30:02.682Z,38.26
2019-04-30T03:31:04.503Z,38.36
2019-04-30T03:32:03.657Z,38.36
2019-04-30T03:33:03.171Z,38.26
2019-04-30T03:34:02.566Z,38.26
2019-04-30T03:35:03.393Z,38.26
2019-04-30T03:36:02.836Z,38.26
2019-04-30T03:37:02.492Z,38.26
2019-04-30T03:38:02.476Z,38.26
2019-04-30T03:39:02.494Z,38.36
2019-04-30T03:40:02.494Z,38.36
2019-04-30T03:41:02.450Z,38.36
2019-04-30T03:42:02.436Z,38.36
2019-04-30T03:43:03.098Z,38.26
2019-04-30T03:44:17.119Z,38.26
2019-04-30T03:45:03.431Z,38.36
2019-04-30T03:46:02.686Z,38.36
2019-04-30T03:47:02.382Z,38.36
2019-04-30T03:48:02.370Z,38.36
2019-04-30T03:49:02.355Z,38.36
2019-04-30T03:50:02.395Z,38.36
2019-04-30T03:51:02.356Z,38.38
2019-04-30T03:52:02.332Z,38.36
2019-04-30T03:53:02.312Z,38.36
2019-04-30T03:54:02.304Z,38.36
2019-04-30T03:55:02.953Z,38.36
2019-04-30T03:56:02.323Z,38.36
2019-04-30T03:57:02.299Z,38.36
2019-04-30T03:58:02.266Z,38.36
2019-04-30T03:59:02.295Z,38.36
2019-04-30T04:00:02.272Z,38.26
2019-04-30T04:01:02.235Z,38.36
2019-04-30T04:02:02.225Z,38.36
2019-04-30T04:03:02.208Z,38.38
2019-04-30T04:04:02.230Z,38.38
2019-04-30T04:05:03.106Z,38.38
2019-04-30T04:06:02.172Z,38.38
2019-04-30T04:07:02.170Z,38.38
2019-04-30T04:08:02.165Z,38.38
2019-04-30T04:09:02.138Z,38.38
2019-04-30T04:10:02.154Z,38.36
2019-04-30T04:11:03.103Z,38.38
2019-04-30T04:12:02.106Z,38.36
2019-04-30T04:13:02.110Z,38.36
2019-04-30T04:14:02.101Z,38.36
2019-04-30T04:15:03.936Z,38.36
2019-04-30T04:16:02.098Z,38.36
2019-04-30T04:17:02.064Z,38.36
2019-04-30T04:18:02.085Z,38.46
2019-04-30T04:19:02.737Z,38.46
2019-04-30T04:20:02.034Z,38.46
2019-04-30T04:21:11.321Z,38.46
2019-04-30T04:22:04.216Z,38.46
2019-04-30T04:23:01.997Z,38.46
2019-04-30T04:24:01.987Z,38.46
2019-04-30T04:25:01.973Z,38.46
2019-04-30T04:26:01.959Z,38.56
2019-04-30T04:27:01.991Z,38.56
2019-04-30T04:28:01.941Z,38.56
2019-04-30T04:29:01.928Z,38.56
2019-04-30T04:30:01.944Z,38.56
2019-04-30T04:31:01.913Z,38.56
2019-04-30T04:32:01.921Z,38.66
2019-04-30T04:33:01.886Z,38.66
2019-04-30T04:34:01.887Z,38.66
2019-04-30T04:35:01.873Z,38.66
2019-04-30T04:36:01.881Z,38.66
2019-04-30T04:37:01.874Z,38.66
2019-04-30T04:38:01.835Z,38.66
2019-04-30T04:39:01.816Z,38.66
2019-04-30T04:40:01.818Z,38.76
2019-04-30T04:41:03.091Z,38.66
2019-04-30T04:42:01.866Z,38.66
2019-04-30T04:43:01.777Z,38.66
2019-04-30T04:44:01.762Z,38.66
2019-04-30T04:45:01.768Z,38.66
2019-04-30T04:46:01.747Z,38.66
2019-04-30T04:47:01.773Z,38.66
2019-04-30T04:48:01.731Z,38.66
2019-04-30T04:49:01.718Z,38.76
2019-04-30T04:50:01.711Z,38.76
2019-04-30T04:51:01.686Z,38.76
2019-04-30T04:52:01.717Z,38.76
2019-04-30T04:53:01.678Z,38.76
2019-04-30T04:54:03.314Z,38.76
2019-04-30T04:55:01.675Z,38.76
2019-04-30T04:56:01.635Z,38.66
2019-04-30T04:57:13.213Z,38.76
2019-04-30T04:58:02.617Z,38.76
2019-04-30T04:59:01.608Z,38.76
2019-04-30T05:00:07.138Z,38.76
2019-04-30T05:01:02.592Z,38.76
2019-04-30T05:02:01.603Z,38.76
2019-04-30T05:03:01.567Z,38.76
2019-04-30T05:04:01.554Z,38.85
2019-04-30T05:05:01.551Z,39.15
2019-04-30T05:06:02.633Z,39.46
2019-04-30T05:07:01.550Z,39.86
2019-04-30T05:08:01.529Z,39.65
2019-04-30T05:09:01.670Z,39.65
2019-04-30T05:10:01.492Z,39.65
2019-04-30T05:11:01.505Z,39.65
2019-04-30T05:12:01.501Z,39.56
2019-04-30T05:13:01.495Z,39.76
2019-04-30T05:14:01.451Z,39.76
2019-04-30T05:15:01.430Z,39.95
2019-04-30T05:16:01.423Z,39.95
2019-04-30T05:17:01.406Z,39.86
2019-04-30T05:18:01.419Z,39.84
2019-04-30T05:19:01.396Z,40.04
2019-04-30T05:20:01.379Z,39.84
2019-04-30T05:21:01.363Z,39.94
2019-04-30T05:22:01.350Z,39.94
2019-04-30T05:23:01.379Z,39.94
2019-04-30T05:24:01.335Z,39.84
2019-04-30T05:25:01.333Z,39.84
2019-04-30T05:26:01.311Z,39.84
2019-04-30T05:27:01.308Z,39.74
2019-04-30T05:28:01.314Z,39.84
2019-04-30T05:29:01.281Z,39.84
2019-04-30T05:30:01.263Z,39.84
2019-04-30T05:31:01.264Z,39.74
2019-04-30T05:32:01.245Z,39.94
2019-04-30T05:33:01.263Z,39.94
2019-04-30T05:34:01.223Z,39.94
2019-04-30T05:35:01.223Z,39.84
2019-04-30T05:36:01.199Z,39.74
2019-04-30T05:37:01.191Z,39.64
2019-04-30T05:38:01.202Z,39.74
2019-04-30T05:39:01.193Z,39.54
2019-04-30T05:40:01.160Z,39.64
2019-04-30T05:41:01.148Z,39.64
2019-04-30T05:42:01.138Z,39.64
2019-04-30T05:43:01.154Z,39.64
2019-04-30T05:44:01.130Z,39.54
2019-04-30T05:45:01.101Z,39.54
2019-04-30T05:46:01.098Z,39.64
2019-04-30T05:47:01.077Z,39.43
2019-04-30T05:48:01.080Z,39.24
2019-04-30T05:49:01.097Z,39.14
2019-04-30T05:50:01.052Z,39.14
2019-04-30T05:51:01.040Z,39.34
2019-04-30T05:52:01.041Z,39.34
2019-04-30T05:53:01.120Z,39.43
2019-04-30T05:54:01.028Z,39.52
2019-04-30T05:55:01.003Z,39.52
2019-04-30T05:56:03.110Z,39.52
2019-04-30T05:57:00.989Z,39.42
2019-04-30T05:58:01.497Z,39.52
2019-04-30T05:59:01.016Z,39.52
2019-04-30T06:00:00.957Z,39.52
2019-04-30T06:01:00.947Z,39.42
2019-04-30T06:02:00.924Z,39.42
2019-04-30T06:03:00.920Z,39.22
2019-04-30T06:04:00.929Z,39.22
2019-04-30T06:05:00.883Z,39.32
2019-04-30T06:06:00.961Z,39.42
2019-04-30T06:07:00.879Z,39.52
2019-04-30T06:08:00.953Z,39.42
2019-04-30T06:09:06.768Z,39.42
2019-04-30T06:10:01.839Z,39.32
2019-04-30T06:11:00.825Z,39.32
2019-04-30T06:12:00.845Z,39.42
2019-04-30T06:13:00.799Z,39.42
2019-04-30T06:14:00.812Z,39.42
2019-04-30T06:15:00.811Z,39.32
2019-04-30T06:16:00.771Z,39.32
2019-04-30T06:17:00.764Z,39.42
2019-04-30T06:18:10.576Z,39.42
2019-04-30T06:19:01.768Z,39.32
2019-04-30T06:20:00.741Z,39.32
2019-04-30T06:21:00.717Z,39.22
2019-04-30T06:22:07.776Z,39.22
2019-04-30T06:23:01.698Z,39.22
2019-04-30T06:24:00.686Z,39.22
2019-04-30T06:25:00.704Z,39.22
2019-04-30T06:26:09.333Z,39.22
2019-04-30T06:27:01.645Z,39.20
2019-04-30T06:28:00.656Z,39.10
2019-04-30T06:29:01.463Z,39.20
2019-04-30T06:30:00.660Z,39.22
2019-04-30T06:31:00.625Z,39.10
2019-04-30T06:32:00.593Z,39.00
2019-04-30T06:33:00.579Z,39.10
2019-04-30T06:34:00.585Z,39.10
2019-04-30T06:35:00.588Z,39.12
2019-04-30T06:36:00.563Z,39.12
2019-04-30T06:37:00.555Z,39.12
2019-04-30T06:38:00.535Z,39.02
2019-04-30T06:39:00.522Z,38.90
2019-04-30T06:40:00.546Z,38.90
2019-04-30T06:41:00.506Z,38.90
2019-04-30T06:42:06.837Z,39.00
2019-04-30T06:43:01.478Z,39.00
2019-04-30T06:44:00.456Z,39.00
2019-04-30T06:45:00.541Z,39.00
2019-04-30T06:46:01.010Z,39.00
2019-04-30T06:47:01.256Z,38.90
2019-04-30T06:48:00.430Z,38.90
2019-04-30T06:49:00.400Z,38.70
2019-04-30T06:50:01.340Z,38.80
2019-04-30T06:51:01.683Z,38.90
2019-04-30T06:52:00.370Z,39.00
2019-04-30T06:53:01.588Z,39.20
2019-04-30T06:54:00.372Z,39.10
2019-04-30T06:55:00.562Z,38.90
2019-04-30T06:56:00.338Z,38.90
2019-04-30T06:57:00.337Z,38.90
2019-04-30T06:58:12.069Z,38.90
2019-04-30T06:59:01.286Z,38.90
2019-04-30T07:00:00.306Z,38.90
2019-04-30T07:01:00.300Z,38.80
2019-04-30T07:02:00.258Z,38.70
2019-04-30T07:03:00.249Z,38.80
2019-04-30T07:04:01.057Z,38.80
2019-04-30T07:05:00.230Z,38.80
2019-04-30T07:06:00.955Z,38.80
2019-04-30T07:07:00.216Z,38.80
2019-04-30T07:08:05.662Z,38.70
2019-04-30T07:09:01.190Z,38.50
2019-04-30T07:10:01.207Z,38.40
2019-04-30T07:11:07.412Z,38.31
2019-04-30T07:12:01.181Z,38.31
2019-04-30T07:13:00.144Z,38.31
2019-04-30T07:14:00.199Z,38.20
2019-04-30T07:15:00.127Z,38.20
2019-04-30T07:16:00.143Z,38.20
2019-04-30T07:17:00.158Z,38.40
2019-04-30T07:18:00.090Z,38.80
2019-04-30T07:19:00.074Z,38.90
2019-04-30T07:20:00.080Z,39.00
2019-04-30T07:21:00.069Z,38.80
2019-04-30T07:22:00.067Z,38.90
2019-04-30T07:24:01.037Z,38.80
2019-04-30T07:25:00.013Z,38.90
2019-04-30T07:26:00.052Z,38.80
2019-04-30T07:27:02.753Z,38.80
2019-04-30T07:27:59.988Z,38.80
2019-04-30T07:29:02.508Z,38.80
2019-04-30T07:29:59.957Z,38.80
2019-04-30T07:31:10.259Z,38.80
2019-04-30T07:32:00.956Z,38.80
2019-04-30T07:32:59.922Z,38.80
2019-04-30T07:33:59.917Z,38.80
2019-04-30T07:34:59.916Z,38.70
2019-04-30T07:36:01.739Z,38.70
2019-04-30T07:37:11.845Z,38.80
2019-04-30T07:38:04.847Z,38.70
2019-04-30T07:39:00.058Z,38.70
2019-04-30T07:39:59.840Z,38.80
2019-04-30T07:40:59.827Z,38.70
2019-04-30T07:42:00.017Z,38.80
2019-04-30T07:42:59.817Z,38.70
2019-04-30T07:43:59.796Z,38.70
2019-04-30T07:45:00.755Z,38.70
2019-04-30T07:45:59.883Z,38.70
2019-04-30T07:47:02.003Z,38.70
2019-04-30T07:47:59.754Z,38.70
2019-04-30T07:49:00.084Z,38.70
2019-04-30T07:50:00.797Z,38.70
2019-04-30T07:50:59.734Z,38.70
2019-04-30T07:52:01.458Z,38.70
2019-04-30T07:53:05.844Z,38.70
2019-04-30T07:54:00.690Z,38.60
2019-04-30T07:55:00.707Z,38.60
2019-04-30T07:55:59.665Z,38.60
2019-04-30T07:57:00.497Z,38.60
2019-04-30T07:57:59.645Z,38.59
2019-04-30T07:59:00.758Z,38.40
2019-04-30T08:00:00.565Z,38.31
2019-04-30T08:00:59.662Z,38.29
2019-04-30T08:02:07.377Z,38.18
2019-04-30T08:03:00.598Z,38.40
2019-04-30T08:03:59.579Z,38.50
2019-04-30T08:04:59.952Z,38.60
2019-04-30T08:06:00.027Z,38.48
2019-04-30T08:06:59.917Z,38.59
2019-04-30T08:08:16.705Z,38.59
2019-04-30T08:09:01.217Z,38.60
2019-04-30T08:09:34.154Z,38.80
2019-04-30T08:09:59.525Z,38.59
2019-04-30T08:10:59.500Z,38.59
2019-04-30T08:11:59.551Z,38.59
2019-04-30T08:13:08.511Z,38.59
2019-04-30T08:14:00.790Z,38.59
2019-04-30T08:14:59.605Z,38.59
2019-04-30T08:15:59.728Z,38.48
2019-04-30T08:16:59.443Z,38.59
2019-04-30T08:18:03.517Z,38.59
2019-04-30T08:19:00.422Z,38.59
2019-04-30T08:19:59.397Z,38.68
2019-04-30T08:21:00.971Z,39.28
2019-04-30T08:21:59.378Z,38.89
2019-04-30T08:23:13.005Z,38.78
2019-04-30T08:24:01.099Z,38.68
2019-04-30T08:24:59.347Z,38.39
2019-04-30T08:25:59.342Z,38.29
2019-04-30T08:27:01.156Z,38.18
2019-04-30T08:27:59.340Z,38.29
2019-04-30T08:28:59.871Z,38.29
2019-04-30T08:29:59.330Z,38.39
2019-04-30T08:30:59.277Z,38.39
2019-04-30T08:31:59.462Z,38.39
2019-04-30T08:32:59.681Z,38.39
2019-04-30T08:33:59.317Z,38.39
2019-04-30T08:35:01.137Z,38.39
2019-04-30T08:36:01.001Z,38.39
2019-04-30T08:36:59.511Z,38.39
2019-04-30T08:37:59.225Z,38.29
2019-04-30T08:38:59.704Z,38.29
2019-04-30T08:40:00.215Z,38.29
2019-04-30T08:41:00.843Z,38.29
2019-04-30T08:42:00.018Z,38.17
2019-04-30T08:42:59.564Z,38.17
2019-04-30T08:43:59.833Z,38.07
2019-04-30T08:44:59.137Z,38.07
2019-04-30T08:45:59.545Z,38.07
2019-04-30T08:46:59.177Z,38.07
2019-04-30T08:47:59.151Z,38.07
2019-04-30T08:48:59.107Z,38.07
2019-04-30T08:50:02.365Z,37.97
2019-04-30T08:50:59.594Z,37.97
2019-04-30T08:51:59.052Z,37.97
2019-04-30T08:53:00.039Z,37.97
2019-04-30T08:53:59.038Z,38.76
2019-04-30T08:55:12.999Z,37.95
2019-04-30T08:56:00.007Z,37.85
2019-04-30T08:56:59.530Z,38.15
2019-04-30T08:58:09.369Z,38.15
2019-04-30T08:59:00.010Z,38.73
2019-04-30T08:59:58.954Z,37.49
2019-04-30T09:00:58.945Z,35.57
2019-04-30T09:02:12.541Z,35.29
2019-04-30T09:02:59.961Z,36.10
2019-04-30T09:03:59.713Z,36.80
2019-04-30T09:05:00.523Z,35.87
2019-04-30T09:05:59.039Z,35.38
2019-04-30T09:06:59.959Z,35.91
2019-04-30T09:07:59.816Z,36.17
2019-04-30T09:08:59.321Z,35.97
2019-04-30T09:10:01.219Z,35.79
2019-04-30T09:10:59.575Z,36.10
2019-04-30T09:11:59.305Z,36.21
2019-04-30T09:12:59.771Z,36.62
2019-04-30T09:13:58.830Z,36.62
2019-04-30T09:14:59.174Z,36.82
2019-04-30T09:15:59.378Z,36.82
2019-04-30T09:16:59.612Z,36.82
2019-04-30T09:18:03.840Z,36.82
2019-04-30T09:18:59.773Z,37.12
2019-04-30T09:19:59.026Z,36.82
2019-04-30T09:21:05.952Z,36.72
2019-04-30T09:21:59.717Z,36.82
2019-04-30T09:22:59.554Z,36.62
2019-04-30T09:23:59.438Z,36.52
2019-04-30T09:24:59.237Z,36.62
2019-04-30T09:25:58.702Z,36.42
2019-04-30T09:26:59.143Z,36.42
2019-04-30T09:27:58.936Z,36.54
2019-04-30T09:28:59.294Z,36.64
2019-04-30T09:29:58.851Z,36.54
2019-04-30T09:30:58.807Z,36.64
2019-04-30T09:31:59.401Z,36.74
2019-04-30T09:32:59.491Z,36.74
2019-04-30T09:34:00.827Z,36.83
2019-04-30T09:34:58.810Z,37.04
2019-04-30T09:35:59.524Z,37.21
2019-04-30T09:36:59.021Z,36.82
2019-04-30T09:38:01.423Z,36.82
2019-04-30T09:39:01.338Z,36.72
2019-04-30T09:39:59.200Z,36.62
2019-04-30T09:40:59.401Z,36.42
2019-04-30T09:41:59.563Z,36.62
2019-04-30T09:42:58.805Z,36.62
2019-04-30T09:43:59.749Z,36.52
2019-04-30T09:44:59.618Z,36.42
2019-04-30T09:45:59.300Z,36.42
2019-04-30T09:46:58.904Z,36.32
2019-04-30T09:47:59.272Z,36.34
2019-04-30T09:48:59.769Z,36.24
2019-04-30T09:49:59.589Z,36.34
2019-04-30T09:51:00.473Z,36.44
2019-04-30T09:51:59.367Z,36.34
2019-04-30T09:53:00.316Z,36.24
2019-04-30T09:54:00.533Z,36.24
2019-04-30T09:54:59.445Z,36.14
2019-04-30T09:55:59.603Z,36.14
2019-04-30T09:56:59.015Z,36.14
2019-04-30T09:57:58.859Z,36.24
2019-04-30T09:58:59.255Z,36.24
2019-04-30T09:59:58.329Z,36.24
2019-04-30T10:00:59.367Z,36.24
2019-04-30T10:01:58.284Z,36.14
2019-04-30T10:02:59.942Z,36.24
2019-04-30T10:04:00.282Z,36.44
2019-04-30T10:04:58.676Z,36.52
2019-04-30T10:05:59.089Z,36.52
2019-04-30T10:06:59.588Z,36.52
2019-04-30T10:07:59.407Z,36.42
2019-04-30T10:08:59.676Z,36.42
2019-04-30T10:09:59.099Z,36.52
2019-04-30T10:10:58.801Z,36.42
2019-04-30T10:11:59.587Z,36.32
2019-04-30T10:12:59.285Z,36.00
2019-04-30T10:13:58.146Z,35.91
2019-04-30T10:14:59.263Z,35.71
2019-04-30T10:15:58.556Z,35.80
2019-04-30T10:16:59.519Z,35.80
2019-04-30T10:17:58.093Z,35.61
2019-04-30T10:18:59.245Z,35.71
2019-04-30T10:19:58.082Z,35.49
2019-04-30T10:20:58.887Z,35.41
2019-04-30T10:21:58.963Z,35.50
2019-04-30T10:22:59.619Z,35.61
2019-04-30T10:24:10.438Z,35.71
2019-04-30T10:24:59.671Z,35.61
2019-04-30T10:25:58.051Z,35.61
2019-04-30T10:26:58.006Z,35.61
2019-04-30T10:27:59.786Z,35.61
2019-04-30T10:28:57.992Z,35.61
2019-04-30T10:29:59.384Z,35.49
2019-04-30T10:30:57.966Z,35.29
2019-04-30T10:31:58.766Z,35.19
2019-04-30T10:33:28.563Z,35.10
2019-04-30T10:34:26.378Z,34.68
2019-04-30T10:35:28.460Z,34.78
2019-04-30T10:36:26.370Z,34.58
2019-04-30T10:37:26.329Z,34.46
2019-04-30T10:38:26.333Z,34.27
2019-04-30T10:39:26.297Z,34.27
2019-04-30T10:40:26.306Z,34.27
2019-04-30T10:41:26.302Z,33.97
2019-04-30T10:42:26.252Z,33.97
2019-04-30T10:43:26.230Z,33.97
2019-04-30T10:44:26.209Z,34.06
2019-04-30T10:45:26.177Z,34.08
2019-04-30T10:46:26.185Z,34.08
2019-04-30T10:47:26.175Z,34.18
2019-04-30T10:48:26.124Z,34.18
2019-04-30T10:49:26.163Z,34.28
2019-04-30T10:50:26.101Z,34.48
2019-04-30T10:51:26.072Z,34.48
2019-04-30T10:52:26.071Z,34.48
2019-04-30T10:53:26.042Z,34.78
2019-04-30T10:54:26.542Z,35.47
2019-04-30T10:55:26.002Z,34.58
2019-04-30T10:56:26.749Z,35.08
2019-04-30T10:57:28.393Z,34.28
2019-04-30T10:58:26.696Z,34.68
2019-04-30T10:59:26.675Z,34.89
2019-04-30T11:00:28.296Z,34.89
2019-04-30T11:01:26.651Z,34.89
2019-04-30T11:02:28.737Z,34.99
2019-04-30T11:03:26.622Z,35.01
2019-04-30T11:04:26.611Z,35.11
2019-04-30T11:05:26.602Z,34.99
2019-04-30T11:06:26.586Z,34.99
2019-04-30T11:07:28.692Z,34.89
2019-04-30T11:08:26.569Z,34.80
2019-04-30T11:09:26.553Z,34.80
2019-04-30T11:10:26.545Z,34.80
2019-04-30T11:11:28.294Z,34.80
2019-04-30T11:12:26.542Z,34.80
2019-04-30T11:13:26.532Z,34.80
2019-04-30T11:14:26.510Z,34.80
2019-04-30T11:15:26.523Z,34.80
2019-04-30T11:16:26.488Z,34.80
2019-04-30T11:17:26.733Z,34.89
2019-04-30T11:18:26.633Z,34.89
2019-04-30T11:19:26.627Z,34.89
2019-04-30T11:20:26.683Z,35.10
2019-04-30T11:21:26.617Z,35.21
2019-04-30T11:22:26.617Z,35.31
2019-04-30T11:23:26.530Z,35.41
2019-04-30T11:24:35.905Z,35.19
2019-04-30T11:25:28.693Z,35.19
2019-04-30T11:26:26.685Z,35.08
2019-04-30T11:27:26.900Z,35.08
2019-04-30T11:28:27.087Z,34.98
2019-04-30T11:29:26.580Z,34.78
2019-04-30T11:30:26.669Z,34.78
2019-04-30T11:31:26.552Z,34.98
2019-04-30T11:32:26.451Z,34.98
2019-04-30T11:33:26.487Z,34.98
2019-04-30T11:34:28.156Z,34.88
2019-04-30T11:35:26.288Z,34.88
2019-04-30T11:36:26.302Z,34.88
2019-04-30T11:37:26.330Z,34.98
2019-04-30T11:38:26.263Z,35.08
2019-04-30T11:39:26.245Z,35.08
2019-04-30T11:40:34.281Z,35.08
2019-04-30T11:41:30.880Z,35.08
2019-04-30T11:42:27.235Z,34.98
2019-04-30T11:43:26.199Z,34.98
2019-04-30T11:44:30.893Z,35.08
2019-04-30T11:45:27.192Z,34.98
2019-04-30T11:46:26.175Z,34.88
2019-04-30T11:47:26.166Z,34.78
2019-04-30T11:48:26.180Z,34.76
2019-04-30T11:49:26.143Z,34.88
2019-04-30T11:50:26.132Z,34.98
2019-04-30T11:51:27.079Z,34.88
2019-04-30T11:52:26.120Z,34.98
2019-04-30T11:53:28.797Z,34.96
2019-04-30T11:54:26.103Z,34.86
2019-04-30T11:55:26.082Z,34.76
2019-04-30T11:56:26.065Z,34.76
2019-04-30T11:57:26.047Z,34.86
2019-04-30T11:58:26.081Z,34.56
2019-04-30T11:59:26.091Z,34.46
2019-04-30T12:00:26.019Z,34.46
2019-04-30T12:01:26.152Z,34.45
2019-04-30T12:02:26.002Z,34.46
2019-04-30T12:03:25.989Z,34.66
2019-04-30T12:04:26.010Z,34.66
2019-04-30T12:05:25.985Z,34.66
2019-04-30T12:06:25.973Z,34.66
2019-04-30T12:07:25.951Z,34.66
2019-04-30T12:08:26.595Z,34.66
2019-04-30T12:09:25.965Z,34.66
2019-04-30T12:10:25.935Z,34.76
2019-04-30T12:11:25.924Z,34.86
2019-04-30T12:12:25.909Z,34.86
2019-04-30T12:13:25.892Z,34.86
2019-04-30T12:14:25.876Z,34.86
2019-04-30T12:15:25.898Z,34.98
2019-04-30T12:16:25.862Z,35.08
2019-04-30T12:17:25.851Z,35.08
2019-04-30T12:18:25.850Z,35.17
2019-04-30T12:19:25.842Z,35.17
2019-04-30T12:20:25.833Z,35.17
2019-04-30T12:21:25.809Z,35.17
2019-04-30T12:22:25.815Z,35.17
2019-04-30T12:23:25.782Z,35.08
2019-04-30T12:24:25.806Z,34.98
2019-04-30T12:25:25.803Z,34.96
2019-04-30T12:26:25.766Z,34.76
2019-04-30T12:27:25.741Z,34.76
2019-04-30T12:28:27.289Z,34.66
2019-04-30T12:29:25.721Z,34.76
2019-04-30T12:30:25.729Z,34.76
2019-04-30T12:31:25.717Z,34.76
2019-04-30T12:32:25.691Z,34.76
2019-04-30T12:33:25.686Z,34.66
2019-04-30T12:34:25.673Z,34.66
2019-04-30T12:35:25.686Z,34.84
2019-04-30T12:36:25.656Z,34.64
2019-04-30T12:37:25.655Z,34.84
2019-04-30T12:38:25.632Z,34.63
2019-04-30T12:39:25.646Z,34.55
2019-04-30T12:40:29.258Z,34.45
2019-04-30T12:41:26.617Z,34.55
2019-04-30T12:42:25.761Z,34.53
2019-04-30T12:43:25.576Z,34.33
2019-04-30T12:44:25.589Z,34.43
2019-04-30T12:45:25.560Z,34.43
2019-04-30T12:46:25.571Z,34.64
2019-04-30T12:47:25.545Z,34.64
2019-04-30T12:48:25.533Z,34.74
2019-04-30T12:49:25.513Z,34.64
2019-04-30T12:50:25.527Z,34.63
2019-04-30T12:51:25.532Z,35.42
2019-04-30T12:52:25.483Z,35.03